createdAt,value
2023-02-24T00:02:00.865Z,10.10
2023-02-24T00:04:30.566Z,11.23
2023-02-24T00:06:57.814Z,10.70
2023-02-24T00:09:26.630Z,11.73
2023-02-24T00:11:59.153Z,11.13
2023-02-24T00:14:28.982Z,12.02
2023-02-24T00:16:56.891Z,12.18
2023-02-24T00:19:25.306Z,11.50
2023-02-24T00:21:54.303Z,12.60
2023-02-24T00:24:24.361Z,12.43
2023-02-24T00:27:00.160Z,12.20
2023-02-24T00:29:28.981Z,12.38
2023-02-24T00:32:01.041Z,12.43
2023-02-24T00:34:30.341Z,12.25
2023-02-24T00:36:58.259Z,10.88
2023-02-24T00:39:30.687Z,10.77
2023-02-24T00:42:04.377Z,11.60
2023-02-24T00:44:36.411Z,10.90
2023-02-24T00:47:05.011Z,11.70
2023-02-24T00:49:34.001Z,11.35
2023-02-24T00:52:01.215Z,11.15
2023-02-24T00:54:28.399Z,11.57
2023-02-24T00:56:56.414Z,9.75
2023-02-24T00:59:24.142Z,10.75
2023-02-24T01:01:51.934Z,10.68
2023-02-24T01:04:20.111Z,11.40
2023-02-24T01:07:00.078Z,10.57
2023-02-24T01:09:29.746Z,10.23
2023-02-24T01:12:16.713Z,10.93
2023-02-24T01:14:47.808Z,9.50
2023-02-24T01:17:18.287Z,10.60
2023-02-24T01:19:47.312Z,9.98
2023-02-24T01:22:16.262Z,11.30
2023-02-24T01:24:44.838Z,11.13
2023-02-24T01:27:19.738Z,11.07
2023-02-24T01:29:48.119Z,11.60
2023-02-24T01:32:22.114Z,11.52
2023-02-24T01:34:52.188Z,10.38
2023-02-24T01:37:20.216Z,10.35
2023-02-24T01:39:47.983Z,10.48
2023-02-24T01:42:19.658Z,10.65
2023-02-24T01:44:46.821Z,11.13
2023-02-24T01:47:16.125Z,10.20
2023-02-24T01:49:47.251Z,10.50
2023-02-24T01:52:20.301Z,10.23
2023-02-24T01:54:59.502Z,9.77
2023-02-24T01:57:31.189Z,9.68
2023-02-24T02:00:11.157Z,9.63
2023-02-24T02:02:45.764Z,9.60
2023-02-24T02:05:13.888Z,10.95
2023-02-24T02:07:41.940Z,10.90
2023-02-24T02:10:11.458Z,11.05
2023-02-24T02:12:44.339Z,10.63
2023-02-24T02:15:14.490Z,10.55
2023-02-24T02:18:08.417Z,10.90
2023-02-24T02:21:01.404Z,10.40
2023-02-24T02:24:04.418Z,11.20
2023-02-24T02:26:58.069Z,10.88
2023-02-24T02:29:35.178Z,12.02
2023-02-24T02:32:24.151Z,11.73
2023-02-24T02:34:51.917Z,11.40
2023-02-24T02:37:33.293Z,11.32
2023-02-24T02:40:16.925Z,10.52
2023-02-24T02:43:08.095Z,11.35
2023-02-24T02:45:47.669Z,10.43
2023-02-24T02:48:23.713Z,11.70
2023-02-24T02:51:11.169Z,9.68
2023-02-24T02:54:10.234Z,10.30
2023-02-24T02:56:52.784Z,11.75
2023-02-24T02:59:25.083Z,11.55
2023-02-24T03:01:55.598Z,10.93
2023-02-24T03:04:25.239Z,11.00
2023-02-24T03:07:03.278Z,11.55
2023-02-24T03:09:36.158Z,10.13
2023-02-24T03:12:08.538Z,11.10
2023-02-24T03:14:39.567Z,11.25
2023-02-24T03:17:12.648Z,10.88
2023-02-24T03:19:43.813Z,11.52
2023-02-24T03:22:19.157Z,11.40
2023-02-24T03:24:46.413Z,10.30
2023-02-24T03:27:31.113Z,11.77
2023-02-24T03:30:07.186Z,11.27
2023-02-24T03:35:34.326Z,8.90
2023-02-24T03:38:03.273Z,9.32
2023-02-24T03:40:35.796Z,10.57
2023-02-24T03:43:20.552Z,10.15
2023-02-24T03:45:48.557Z,11.07
2023-02-24T03:48:16.324Z,10.73
2023-02-24T03:50:46.539Z,10.80
2023-02-24T03:54:22.353Z,10.50
2023-02-24T03:57:12.753Z,10.18
2023-02-24T03:59:47.154Z,9.85
2023-02-24T04:02:14.531Z,9.52
2023-02-24T04:05:12.579Z,10.43
2023-02-24T04:08:03.352Z,10.15
2023-02-24T04:10:57.420Z,11.30
2023-02-24T04:13:39.305Z,10.95
2023-02-24T04:16:28.038Z,9.00
2023-02-24T04:19:02.847Z,9.85
2023-02-24T04:21:32.336Z,10.70
2023-02-24T04:24:08.587Z,10.23
2023-02-24T04:26:40.439Z,11.07
2023-02-24T04:29:09.598Z,11.07
2023-02-24T04:31:39.072Z,11.77
2023-02-24T04:34:09.528Z,11.13
2023-02-24T04:36:39.388Z,11.00
2023-02-24T04:39:07.681Z,10.80
2023-02-24T04:41:35.846Z,10.65
2023-02-24T04:44:02.682Z,11.38
2023-02-24T04:46:32.596Z,11.20
2023-02-24T04:49:02.227Z,10.10
2023-02-24T04:51:32.445Z,10.57
2023-02-24T04:53:59.722Z,11.25
2023-02-24T04:56:28.988Z,10.55
2023-02-24T04:58:55.928Z,9.75
2023-02-24T05:01:23.239Z,10.13
2023-02-24T05:03:50.785Z,10.05
2023-02-24T05:06:18.163Z,10.02
2023-02-24T05:08:45.660Z,10.13
2023-02-24T05:11:16.713Z,8.85
2023-02-24T05:13:47.286Z,10.38
2023-02-24T05:16:17.761Z,9.85
2023-02-24T05:18:44.873Z,10.05
2023-02-24T05:21:35.459Z,10.10
2023-02-24T05:24:11.544Z,9.45
2023-02-24T05:29:09.424Z,9.00
2023-02-24T05:31:37.424Z,8.68
2023-02-24T05:34:08.549Z,10.52
2023-02-24T05:36:40.255Z,10.18
2023-02-24T05:39:12.043Z,10.07
2023-02-24T05:41:42.199Z,11.05
2023-02-24T05:44:13.998Z,9.95
2023-02-24T05:46:44.631Z,10.38
2023-02-24T05:49:27.386Z,11.07
2023-02-24T05:51:56.971Z,10.45
2023-02-24T05:54:29.264Z,11.18
2023-02-24T05:57:00.219Z,10.13
2023-02-24T05:59:32.600Z,11.15
2023-02-24T06:02:09.276Z,11.20
2023-02-24T06:04:45.688Z,10.93
2023-02-24T06:07:27.059Z,11.25
2023-02-24T06:09:57.230Z,11.23
2023-02-24T06:12:28.052Z,11.43
2023-02-24T06:14:55.579Z,10.60
2023-02-24T06:17:22.998Z,11.43
2023-02-24T06:19:51.675Z,11.75
2023-02-24T06:22:21.224Z,11.40
2023-02-24T06:24:49.508Z,12.52
2023-02-24T06:27:18.951Z,12.98
2023-02-24T06:29:50.154Z,11.77
2023-02-24T06:32:24.053Z,11.48
2023-02-24T06:34:51.829Z,11.98
2023-02-24T06:37:19.075Z,12.07
2023-02-24T06:39:46.389Z,12.70
2023-02-24T06:42:13.939Z,12.63
2023-02-24T06:44:41.952Z,12.60
2023-02-24T06:47:13.126Z,11.80
2023-02-24T06:49:40.606Z,12.73
2023-02-24T06:52:08.701Z,12.40
2023-02-24T06:54:36.258Z,11.45
2023-02-24T06:57:03.814Z,11.88
2023-02-24T06:59:30.844Z,11.95
2023-02-24T07:01:59.488Z,11.20
2023-02-24T07:04:28.900Z,13.30
2023-02-24T07:07:02.883Z,12.38
2023-02-24T07:09:31.206Z,11.32
2023-02-24T07:11:58.823Z,11.38
2023-02-24T07:14:27.795Z,12.63
2023-02-24T07:16:55.504Z,13.02
2023-02-24T07:19:29.195Z,14.60
2023-02-24T07:22:03.088Z,16.58
2023-02-24T07:24:33.489Z,14.48
2023-02-24T07:27:04.401Z,12.63
2023-02-24T07:29:32.736Z,11.90
2023-02-24T07:32:05.980Z,15.35
2023-02-24T07:34:34.150Z,14.50
2023-02-24T07:37:08.004Z,13.00
2023-02-24T07:39:37.546Z,12.00
2023-02-24T07:42:07.589Z,12.27
2023-02-24T07:44:44.669Z,12.57
2023-02-24T07:47:11.962Z,12.90
2023-02-24T07:49:41.107Z,11.40
2023-02-24T07:52:08.582Z,11.50
2023-02-24T07:54:35.934Z,12.60
2023-02-24T07:57:03.222Z,11.75
2023-02-24T07:59:32.524Z,13.43
2023-02-24T08:02:00.608Z,12.93
2023-02-24T08:04:30.291Z,11.90
2023-02-24T08:07:02.421Z,12.00
2023-02-24T08:10:07.089Z,13.35
2023-02-24T08:12:35.259Z,11.98
2023-02-24T08:15:17.208Z,14.13
2023-02-24T08:17:47.438Z,12.75
2023-02-24T08:20:14.807Z,13.35
2023-02-24T08:22:44.409Z,13.60
2023-02-24T08:25:18.506Z,13.23
2023-02-24T08:28:12.519Z,12.93
2023-02-24T08:30:45.356Z,14.27
2023-02-24T08:33:18.976Z,13.90
2023-02-24T08:35:50.914Z,13.82
2023-02-24T08:38:19.920Z,13.43
2023-02-24T08:40:51.853Z,14.23
2023-02-24T08:43:28.870Z,13.35
2023-02-24T08:46:03.836Z,14.65
2023-02-24T08:48:37.954Z,15.17
2023-02-24T08:51:08.918Z,13.85
2023-02-24T08:53:40.312Z,14.15
2023-02-24T08:56:11.355Z,14.65
2023-02-24T08:58:49.909Z,14.05
2023-02-24T09:01:25.547Z,14.20
2023-02-24T09:03:58.128Z,14.93
2023-02-24T09:06:37.390Z,13.02
2023-02-24T09:09:17.493Z,12.93
2023-02-24T09:11:57.235Z,13.82
2023-02-24T09:14:36.488Z,14.05
2023-02-24T09:17:06.630Z,13.52
2023-02-24T09:19:51.528Z,13.73
2023-02-24T09:22:33.141Z,13.27
2023-02-24T09:25:18.543Z,14.18
2023-02-24T09:27:52.170Z,13.65
2023-02-24T09:30:36.492Z,14.07
2023-02-24T09:33:19.111Z,13.63
2023-02-24T09:36:09.813Z,13.63
2023-02-24T09:39:00.598Z,14.20
2023-02-24T09:41:54.039Z,13.85
2023-02-24T09:44:33.189Z,14.70
2023-02-24T09:47:14.087Z,14.07
2023-02-24T09:49:49.658Z,15.10
2023-02-24T09:52:19.005Z,14.50
2023-02-24T09:55:09.094Z,13.27
2023-02-24T09:58:05.670Z,14.25
2023-02-24T10:00:33.727Z,14.05
2023-02-24T10:03:19.784Z,14.90
2023-02-24T10:06:12.270Z,13.77
2023-02-24T10:08:47.931Z,11.88
2023-02-24T10:11:15.413Z,13.75
2023-02-24T10:13:49.485Z,13.70
2023-02-24T10:16:24.076Z,13.27
2023-02-24T10:19:16.375Z,15.55
2023-02-24T10:22:00.623Z,14.27
2023-02-24T10:24:47.261Z,13.88
2023-02-24T10:27:26.300Z,12.15
2023-02-24T10:30:11.315Z,12.38
2023-02-24T10:32:52.184Z,12.98
2023-02-24T10:35:22.226Z,11.88
2023-02-24T10:37:49.882Z,11.90
2023-02-24T10:40:43.858Z,12.25
2023-02-24T10:43:17.883Z,11.43
2023-02-24T10:45:46.305Z,12.05
2023-02-24T10:48:41.420Z,11.65
2023-02-24T10:51:20.221Z,12.57
2023-02-24T10:54:14.165Z,11.32
2023-02-24T10:56:44.795Z,11.18
2023-02-24T10:59:24.576Z,11.15
2023-02-24T11:02:01.149Z,10.77
2023-02-24T11:04:43.802Z,11.05
2023-02-24T11:07:24.591Z,11.23
2023-02-24T11:10:15.153Z,11.18
2023-02-24T11:13:10.069Z,11.80
2023-02-24T11:16:01.329Z,11.40
2023-02-24T11:18:30.257Z,11.20
2023-02-24T11:21:04.758Z,12.18
2023-02-24T11:23:45.200Z,11.45
2023-02-24T11:26:23.981Z,10.38
2023-02-24T11:28:57.649Z,10.95
2023-02-24T11:31:34.896Z,11.48
2023-02-24T11:34:33.998Z,12.73
2023-02-24T11:37:15.755Z,11.38
2023-02-24T11:40:22.914Z,12.00
2023-02-24T11:43:03.245Z,11.82
2023-02-24T11:45:53.477Z,11.18
2023-02-24T11:48:26.508Z,10.85
2023-02-24T11:50:53.725Z,12.52
2023-02-24T11:53:36.785Z,10.57
2023-02-24T11:56:04.195Z,10.60
2023-02-24T11:58:31.387Z,11.10
2023-02-24T12:01:22.391Z,11.20
2023-02-24T12:04:09.935Z,11.38
2023-02-24T12:06:37.217Z,9.90
2023-02-24T12:09:14.133Z,11.57
2023-02-24T12:11:58.885Z,11.52
2023-02-24T12:14:32.477Z,10.90
2023-02-24T12:17:22.284Z,10.18
2023-02-24T12:19:59.060Z,10.55
2023-02-24T12:22:49.269Z,10.40
2023-02-24T12:25:18.717Z,9.32
2023-02-24T12:28:02.306Z,10.45
2023-02-24T12:30:49.152Z,10.73
2023-02-24T12:33:44.479Z,8.90
2023-02-24T12:36:31.037Z,7.95
2023-02-24T12:39:01.881Z,8.45
2023-02-24T12:41:46.560Z,8.10
2023-02-24T12:44:13.845Z,34.08
2023-02-24T12:46:41.229Z,20.40
2023-02-24T12:49:43.939Z,13.32
2023-02-24T12:52:52.570Z,9.50
2023-02-24T12:55:38.044Z,9.80
2023-02-24T12:58:16.716Z,8.50
2023-02-24T13:00:52.568Z,9.18
2023-02-24T13:03:39.663Z,8.02
2023-02-24T13:06:32.391Z,8.75
2023-02-24T13:09:25.551Z,7.35
2023-02-24T13:12:15.821Z,8.30
2023-02-24T13:14:44.349Z,6.72
2023-02-24T13:17:11.879Z,7.20
2023-02-24T13:19:40.178Z,7.05
2023-02-24T13:22:28.946Z,7.35
2023-02-24T13:24:59.674Z,6.15
2023-02-24T13:27:35.251Z,6.82
2023-02-24T13:30:08.250Z,6.45
2023-02-24T13:32:45.093Z,6.28
2023-02-24T13:35:15.033Z,6.07
2023-02-24T13:37:43.937Z,6.00
2023-02-24T13:40:22.287Z,6.35
2023-02-24T13:42:59.691Z,5.65
2023-02-24T13:45:34.843Z,5.75
2023-02-24T13:48:16.895Z,5.75
2023-02-24T13:51:05.667Z,5.45
2023-02-24T13:53:35.382Z,5.72
2023-02-24T13:56:04.974Z,5.18
2023-02-24T13:58:42.296Z,5.55
2023-02-24T14:01:14.464Z,5.38
2023-02-24T14:03:44.082Z,4.50
2023-02-24T14:06:26.334Z,5.20
2023-02-24T14:08:57.157Z,4.72
2023-02-24T14:11:27.016Z,5.10
2023-02-24T14:13:55.854Z,5.45
2023-02-24T14:16:33.568Z,5.10
2023-02-24T14:19:02.999Z,4.45
2023-02-24T14:21:33.011Z,4.80
2023-02-24T14:24:10.723Z,4.60
2023-02-24T14:26:44.256Z,4.20
2023-02-24T14:29:11.630Z,4.03
2023-02-24T14:31:39.144Z,4.15
2023-02-24T14:34:09.162Z,4.00
2023-02-24T14:36:39.453Z,4.05
2023-02-24T14:39:15.939Z,4.60
2023-02-24T14:41:43.518Z,3.70
2023-02-24T14:44:30.281Z,4.03
2023-02-24T14:46:59.459Z,4.28
2023-02-24T14:49:32.806Z,4.30
2023-02-24T14:52:10.064Z,3.88
2023-02-24T14:54:45.784Z,4.10
2023-02-24T14:57:17.271Z,3.92
2023-02-24T14:59:47.029Z,3.75
2023-02-24T15:02:19.634Z,3.63
2023-02-24T15:04:47.739Z,4.15
2023-02-24T15:07:28.506Z,4.75
2023-02-24T15:09:55.923Z,4.40
2023-02-24T15:12:33.748Z,4.75
2023-02-24T15:15:22.057Z,4.50
2023-02-24T15:18:04.409Z,4.38
2023-02-24T15:20:31.852Z,4.80
2023-02-24T15:22:59.287Z,4.53
2023-02-24T15:25:46.293Z,3.95
2023-02-24T15:28:32.483Z,4.95
2023-02-24T15:31:00.202Z,4.35
2023-02-24T15:33:34.203Z,4.70
2023-02-24T15:36:05.149Z,4.18
2023-02-24T15:38:38.385Z,4.78
2023-02-24T15:41:06.784Z,4.25
2023-02-24T15:43:37.142Z,4.65
2023-02-24T15:46:23.189Z,4.47
2023-02-24T15:48:52.719Z,4.20
2023-02-24T15:51:39.774Z,4.28
2023-02-24T15:54:10.956Z,4.03
2023-02-24T15:56:38.248Z,4.38
2023-02-24T15:59:06.117Z,3.30
2023-02-24T16:01:34.097Z,4.50
2023-02-24T16:04:01.608Z,3.72
2023-02-24T16:06:29.219Z,4.50
2023-02-24T16:08:57.758Z,3.55
2023-02-24T16:11:31.698Z,3.75
2023-02-24T16:14:00.562Z,3.63
2023-02-24T16:16:28.043Z,3.58
2023-02-24T16:18:54.924Z,3.35
2023-02-24T16:21:21.836Z,3.17
2023-02-24T16:23:50.215Z,3.58
2023-02-24T16:26:20.474Z,3.13
2023-02-24T16:28:54.692Z,4.55
2023-02-24T16:31:22.869Z,3.80
2023-02-24T16:33:54.880Z,4.07
2023-02-24T16:36:25.295Z,3.97
2023-02-24T16:38:52.539Z,3.00
2023-02-24T16:41:20.389Z,2.95
2023-02-24T16:43:48.180Z,3.55
2023-02-24T16:46:19.018Z,3.15
2023-02-24T16:48:48.904Z,2.60
2023-02-24T16:51:16.096Z,3.03
2023-02-24T16:53:43.527Z,3.22
2023-02-24T16:56:12.024Z,2.70
2023-02-24T16:58:39.337Z,3.05
2023-02-24T17:01:06.340Z,3.28
2023-02-24T17:03:48.757Z,3.25
2023-02-24T17:06:15.729Z,2.67
2023-02-24T17:08:43.906Z,3.20
2023-02-24T17:11:15.800Z,2.95
2023-02-24T17:13:43.672Z,3.33
2023-02-24T17:16:11.637Z,3.40
2023-02-24T17:18:38.957Z,3.47
2023-02-24T17:21:06.267Z,3.00
2023-02-24T17:23:33.106Z,3.15
2023-02-24T17:26:02.248Z,2.85
2023-02-24T17:28:29.754Z,2.47
2023-02-24T17:30:57.263Z,3.00
2023-02-24T17:33:24.486Z,2.75
2023-02-24T17:35:51.744Z,2.55
2023-02-24T17:38:20.576Z,2.60
2023-02-24T17:40:47.978Z,2.47
2023-02-24T17:43:15.218Z,2.33
2023-02-24T17:45:44.971Z,2.78
2023-02-24T17:48:14.273Z,2.83
2023-02-24T17:50:42.357Z,2.45
2023-02-24T17:53:09.392Z,2.33
2023-02-24T17:55:36.758Z,2.40
2023-02-24T17:58:03.957Z,2.40
2023-02-24T18:00:31.365Z,2.47
2023-02-24T18:02:58.270Z,3.10
2023-02-24T18:05:25.709Z,2.67
2023-02-24T18:07:53.542Z,2.38
2023-02-24T18:10:20.521Z,2.63
2023-02-24T18:12:47.791Z,2.53
2023-02-24T18:15:15.012Z,2.33
2023-02-24T18:17:42.224Z,2.13
2023-02-24T18:20:12.098Z,2.85
2023-02-24T18:22:38.933Z,2.65
2023-02-24T18:25:06.389Z,4.53
2023-02-24T18:27:33.730Z,4.15
2023-02-24T18:30:00.965Z,3.03
2023-02-24T18:32:28.372Z,2.67
2023-02-24T18:34:56.290Z,3.10
2023-02-24T18:37:23.768Z,2.72
2023-02-24T18:39:53.266Z,2.85
2023-02-24T18:42:20.670Z,2.03
2023-02-24T18:44:48.146Z,2.30
2023-02-24T18:47:15.011Z,2.45
2023-02-24T18:49:42.249Z,2.80
2023-02-24T18:52:11.890Z,2.63
2023-02-24T18:54:39.272Z,2.30
2023-02-24T18:57:06.176Z,2.05
2023-02-24T18:59:33.311Z,2.60
2023-02-24T19:02:00.414Z,2.40
2023-02-24T19:04:27.474Z,2.13
2023-02-24T19:06:55.051Z,2.70
2023-02-24T19:09:22.633Z,3.28
2023-02-24T19:11:52.141Z,2.47
2023-02-24T19:14:19.527Z,2.53
2023-02-24T19:16:46.728Z,2.70
2023-02-24T19:19:14.896Z,3.13
2023-02-24T19:21:45.338Z,4.82
2023-02-24T19:24:13.855Z,4.30
2023-02-24T19:26:42.835Z,4.00
2023-02-24T19:29:10.993Z,2.63
2023-02-24T19:31:39.301Z,2.67
2023-02-24T19:34:08.689Z,2.58
2023-02-24T19:36:37.089Z,2.60
2023-02-24T19:39:05.408Z,2.67
2023-02-24T19:41:32.884Z,2.38
2023-02-24T19:43:59.839Z,2.42
2023-02-24T19:46:27.381Z,1.92
2023-02-24T19:48:56.348Z,2.10
2023-02-24T19:51:24.645Z,2.08
2023-02-24T19:53:57.171Z,2.20
2023-02-24T19:56:30.082Z,2.45
2023-02-24T19:58:59.394Z,1.83
2023-02-24T20:01:28.288Z,2.38
2023-02-24T20:03:58.189Z,2.47
2023-02-24T20:06:30.422Z,2.03
2023-02-24T20:08:58.665Z,2.45
2023-02-24T20:11:25.981Z,2.42
2023-02-24T20:13:53.469Z,2.42
2023-02-24T20:16:23.866Z,4.70
2023-02-24T20:18:51.447Z,3.75
2023-02-24T20:21:18.355Z,6.32
2023-02-24T20:23:45.984Z,5.88
2023-02-24T20:26:16.660Z,4.55
2023-02-24T20:28:45.367Z,4.32
2023-02-24T20:31:15.402Z,3.45
2023-02-24T20:33:43.657Z,3.63
2023-02-24T20:36:22.320Z,2.80
2023-02-24T20:38:51.539Z,4.00
2023-02-24T20:41:20.741Z,3.95
2023-02-24T20:43:48.423Z,2.70
2023-02-24T20:46:28.747Z,2.60
2023-02-24T20:49:01.893Z,2.80
2023-02-24T20:51:30.210Z,2.50
2023-02-24T20:53:58.675Z,3.00
2023-02-24T20:56:34.073Z,2.72
2023-02-24T20:59:13.072Z,2.25
2023-02-24T21:01:40.468Z,2.75
2023-02-24T21:04:08.922Z,2.53
2023-02-24T21:06:37.027Z,2.72
2023-02-24T21:09:04.442Z,2.75
2023-02-24T21:11:32.053Z,2.35
2023-02-24T21:13:59.566Z,2.75
2023-02-24T21:16:27.119Z,3.30
2023-02-24T21:18:55.839Z,3.40
2023-02-24T21:21:23.101Z,2.70
2023-02-24T21:23:50.807Z,3.13
2023-02-24T21:26:18.304Z,3.63
2023-02-24T21:28:46.269Z,3.17
2023-02-24T21:31:16.371Z,3.10
2023-02-24T21:33:43.700Z,2.85
2023-02-24T21:36:14.630Z,2.70
2023-02-24T21:38:41.885Z,2.88
2023-02-24T21:41:13.461Z,2.70
2023-02-24T21:43:40.582Z,3.00
2023-02-24T21:46:11.395Z,3.08
2023-02-24T21:48:38.872Z,3.50
2023-02-24T21:51:09.525Z,3.30
2023-02-24T21:53:39.358Z,3.17
2023-02-24T21:56:11.013Z,2.75
2023-02-24T21:58:39.520Z,2.50
2023-02-24T22:01:20.796Z,3.17
2023-02-24T22:03:47.847Z,2.78
2023-02-24T22:06:16.976Z,2.67
2023-02-24T22:08:45.592Z,3.20
2023-02-24T22:11:17.505Z,3.45
2023-02-24T22:13:45.792Z,3.60
2023-02-24T22:16:15.928Z,3.33
2023-02-24T22:18:43.256Z,3.28
2023-02-24T22:21:17.172Z,3.20
2023-02-24T22:23:49.671Z,3.20
2023-02-24T22:26:16.975Z,3.58
2023-02-24T22:28:45.391Z,3.47
2023-02-24T22:31:15.153Z,2.70
2023-02-24T22:33:43.910Z,4.40
2023-02-24T22:36:14.184Z,2.97
2023-02-24T22:38:42.954Z,3.30
2023-02-24T22:41:22.300Z,3.03
2023-02-24T22:43:49.583Z,3.30
2023-02-24T22:46:37.272Z,3.47
2023-02-24T22:49:04.901Z,2.97
2023-02-24T22:51:32.135Z,3.25
2023-02-24T22:53:58.976Z,3.42
2023-02-24T22:56:28.916Z,2.88
2023-02-24T22:58:56.542Z,3.72
2023-02-24T23:01:23.764Z,3.00
2023-02-24T23:03:51.219Z,3.22
2023-02-24T23:06:22.176Z,2.80
2023-02-24T23:08:50.786Z,3.28
2023-02-24T23:11:20.664Z,3.00
2023-02-24T23:13:49.472Z,3.17
2023-02-24T23:16:19.979Z,3.17
2023-02-24T23:18:50.607Z,2.95
2023-02-24T23:21:24.967Z,3.50
2023-02-24T23:23:57.656Z,3.00
2023-02-24T23:26:45.629Z,3.20
2023-02-24T23:29:14.677Z,3.00
2023-02-24T23:31:42.343Z,3.22
2023-02-24T23:34:09.866Z,3.38
2023-02-24T23:36:39.605Z,2.83
2023-02-24T23:39:07.845Z,2.53
2023-02-24T23:41:35.764Z,3.08
2023-02-24T23:44:03.684Z,3.17
2023-02-24T23:46:32.905Z,2.38
2023-02-24T23:49:00.446Z,2.30
2023-02-24T23:51:35.806Z,2.80
2023-02-24T23:54:09.327Z,2.60
2023-02-24T23:56:36.567Z,3.22
2023-02-24T23:59:03.846Z,2.97
